Time;durP1;ratioP1;P1;durP2;ratioP2;P2;SDS_P1;SDS_P2;PMS_P1;PMS_P2;Temp;Humidity;BMP_temperature;BMP_pressure;BME280_temperature;BME280_humidity;BME280_pressure;Samples;Min_cycle;Max_cycle;Signal;HPM_P1;HPM_P2
2024/03/01 00:01:30;;;;;;;18.42;6.60;;;;;;;9.63;100.00;97641.00;4945798;28;20042;-61
2024/03/01 00:03:57;;;;;;;12.38;5.90;;;;;;;9.63;100.00;97631.41;4945255;28;20073;-63
2024/03/01 00:06:23;;;;;;;10.60;5.57;;;;;;;9.66;100.00;97634.69;4954084;28;20045;-64
2024/03/01 00:08:50;;;;;;;16.48;6.53;;;;;;;9.58;100.00;97632.88;4970882;28;20034;-62
2024/03/01 00:11:16;;;;;;;18.55;7.20;;;;;;;9.27;100.00;97598.97;4973383;28;20619;-62
2024/03/01 00:13:42;;;;;;;17.35;7.43;;;;;;;9.53;100.00;97635.97;4949741;28;20042;-63
2024/03/01 00:16:08;;;;;;;16.65;8.15;;;;;;;9.40;100.00;97630.44;4964517;28;20050;-61
2024/03/01 00:18:33;;;;;;;16.50;7.50;;;;;;;9.45;100.00;97629.97;4960889;28;20038;-65
2024/03/01 00:20:59;;;;;;;17.27;7.88;;;;;;;9.45;100.00;97627.38;4958753;28;20038;-61
2024/03/01 00:23:26;;;;;;;14.80;7.57;;;;;;;9.42;100.00;97628.53;4961224;28;20045;-64
2024/03/01 00:25:55;;;;;;;13.38;7.68;;;;;;;9.43;100.00;97627.53;4967875;28;20088;-61
2024/03/01 00:28:20;;;;;;;17.17;6.82;;;;;;;9.11;100.00;97585.03;4967174;28;20153;-62
2024/03/01 00:30:46;;;;;;;14.82;6.68;;;;;;;9.42;100.00;97626.72;4957688;28;20061;-60
2024/03/01 00:33:12;;;;;;;12.07;6.55;;;;;;;9.35;100.00;97609.38;4954516;28;20597;-60
2024/03/01 00:35:39;;;;;;;14.07;7.00;;;;;;;9.27;100.00;97588.63;4964882;28;20042;-62
2024/03/01 00:38:05;;;;;;;15.32;7.88;;;;;;;9.41;100.00;97625.09;4973863;28;20030;-62
2024/03/01 00:40:30;;;;;;;14.02;6.50;;;;;;;9.40;100.00;97620.06;4986683;28;20100;-61
2024/03/01 00:42:58;;;;;;;12.65;5.82;;;;;;;9.41;100.00;97606.13;4964287;28;20042;-61
2024/03/01 00:45:23;;;;;;;14.05;5.63;;;;;;;9.46;100.00;97616.03;4959095;28;20038;-60
2024/03/01 00:47:50;;;;;;;11.02;5.28;;;;;;;9.54;100.00;97608.25;4995654;28;20284;-60
2024/03/01 00:50:16;;;;;;;10.00;5.07;;;;;;;9.50;100.00;97599.16;4980829;28;20132;-58
2024/03/01 00:52:42;;;;;;;12.10;5.50;;;;;;;9.56;100.00;97606.28;4994918;28;20510;-59
2024/03/01 00:55:08;;;;;;;10.43;5.47;;;;;;;9.62;100.00;97608.25;4991711;28;20049;-60
2024/03/01 00:57:33;;;;;;;16.70;5.85;;;;;;;9.53;100.00;97604.84;4962598;28;20030;-60
2024/03/01 01:00:01;;;;;;;12.13;5.75;;;;;;;9.62;100.00;97601.28;4977994;28;20037;-59
2024/03/01 01:02:27;;;;;;;12.15;5.45;;;;;;;9.67;100.00;97597.38;4975581;28;20145;-59
2024/03/01 01:04:52;;;;;;;11.70;6.00;;;;;;;9.52;100.00;97592.81;4977106;28;20038;-59
2024/03/01 01:07:19;;;;;;;11.50;6.45;;;;;;;9.49;100.00;97592.34;4977055;28;20056;-59
2024/03/01 01:09:45;;;;;;;10.93;5.80;;;;;;;9.50;100.00;97575.81;4968366;28;20042;-60
2024/03/01 01:12:46;;;;;;;10.13;5.60;;;;;;;9.48;100.00;97583.75;4972001;28;20038;-61
2024/03/01 01:15:12;;;;;;;14.73;6.00;;;;;;;9.19;100.00;97529.78;4957915;28;20060;-58
2024/03/01 01:17:37;;;;;;;7.30;4.00;;;;;;;9.48;100.00;97582.94;4973129;28;20349;-59
2024/03/01 01:20:03;;;;;;;8.10;3.17;;;;;;;9.26;100.00;97537.72;4976137;28;20553;-59
2024/03/01 01:22:31;;;;;;;9.00;3.67;;;;;;;9.63;100.00;97571.72;4985185;28;20041;-59
2024/03/01 01:24:56;;;;;;;8.90;3.50;;;;;;;9.63;100.00;97557.94;4989493;28;20129;-57
2024/03/01 01:27:24;;;;;;;10.05;3.40;;;;;;;9.67;100.00;97566.22;4975419;28;20061;-58
2024/03/01 01:29:52;;;;;;;9.13;3.58;;;;;;;9.63;100.00;97563.13;4973960;28;20199;-59
2024/03/01 01:32:19;;;;;;;10.77;4.63;;;;;;;9.31;100.00;97558.78;4976148;28;20539;-58
2024/03/01 01:34:47;;;;;;;12.98;6.25;;;;;;;9.21;100.00;97543.38;4961138;28;20096;-59
2024/03/01 01:37:15;;;;;;;15.68;6.75;;;;;;;9.20;100.00;97549.56;4974586;28;20058;-59
2024/03/01 01:39:41;;;;;;;13.82;6.32;;;;;;;9.12;100.00;97537.38;4964184;28;20517;-60
2024/03/01 01:42:09;;;;;;;14.48;6.45;;;;;;;9.17;100.00;97539.50;4959145;28;20061;-59
2024/03/01 01:44:39;;;;;;;11.98;6.75;;;;;;;9.12;100.00;97521.81;4941911;28;20039;-60
2024/03/01 01:47:06;;;;;;;15.27;6.80;;;;;;;9.04;100.00;97519.22;4960516;28;20638;-60
2024/03/01 01:49:32;;;;;;;11.48;5.70;;;;;;;9.08;100.00;97514.53;4953502;28;20114;-59
2024/03/01 01:51:58;;;;;;;14.38;5.57;;;;;;;9.09;100.00;97509.19;4953666;28;20038;-61
2024/03/01 01:54:24;;;;;;;12.93;6.38;;;;;;;9.05;100.00;97502.69;4961906;28;20026;-60
2024/03/01 01:56:50;;;;;;;14.55;6.10;;;;;;;9.08;100.00;97502.38;4969460;28;20043;-59
2024/03/01 01:59:15;;;;;;;13.18;6.00;;;;;;;9.08;100.00;97509.34;4958035;28;20030;-61
2024/03/01 02:01:44;;;;;;;9.98;5.05;;;;;;;9.08;100.00;97502.38;4960275;28;20088;-59
2024/03/01 02:04:09;;;;;;;12.00;5.28;;;;;;;9.11;100.00;97491.69;4971680;28;20042;-60
2024/03/01 02:06:35;;;;;;;9.93;4.72;;;;;;;9.13;100.00;97499.31;4945100;28;20088;-60
2024/03/01 02:09:01;;;;;;;12.38;3.55;;;;;;;9.18;100.00;97497.00;4959893;28;20026;-61
2024/03/01 02:11:26;;;;;;;11.20;4.55;;;;;;;9.18;100.00;97502.19;4957853;28;20045;-60
2024/03/01 02:13:57;;;;;;;11.45;4.43;;;;;;;9.21;100.00;97497.50;4945360;28;20048;-61
2024/03/01 02:16:23;;;;;;;12.73;4.38;;;;;;;9.21;100.00;97496.69;4932459;28;20509;-59
2024/03/01 02:18:51;;;;;;;11.80;4.47;;;;;;;9.21;100.00;97486.31;4955696;28;20026;-60
2024/03/01 02:21:22;;;;;;;9.73;3.70;;;;;;;9.17;100.00;97472.06;4946071;28;20169;-62
2024/03/01 02:23:50;;;;;;;11.30;4.28;;;;;;;9.20;100.00;97476.94;4946202;28;20666;-59
2024/03/01 02:26:16;;;;;;;10.35;4.50;;;;;;;9.22;100.00;97472.38;4955578;28;20030;-61
2024/03/01 02:28:45;;;;;;;11.32;4.03;;;;;;;9.11;100.00;97460.56;4958605;28;20049;-60
2024/03/01 02:31:11;;;;;;;9.30;3.50;;;;;;;9.20;100.00;97464.78;4954896;28;20779;-61
2024/03/01 02:33:37;;;;;;;11.57;3.70;;;;;;;9.16;100.00;97467.84;4945105;28;20038;-60
2024/03/01 02:36:06;;;;;;;7.97;3.92;;;;;;;9.15;100.00;97467.03;4963239;28;20088;-59
2024/03/01 02:38:34;;;;;;;10.02;3.95;;;;;;;9.09;100.00;97462.50;4945696;28;20101;-59
2024/03/01 02:41:02;;;;;;;10.55;3.72;;;;;;;9.17;100.00;97459.09;4967542;28;20038;-60
2024/03/01 02:43:30;;;;;;;8.57;3.65;;;;;;;9.14;100.00;97459.41;4983747;28;20108;-61
2024/03/01 02:45:55;;;;;;;10.52;3.90;;;;;;;9.17;100.00;97465.09;4963443;28;20536;-60
2024/03/01 02:48:20;;;;;;;9.18;4.13;;;;;;;9.21;100.00;97466.38;4960915;28;20048;-60
2024/03/01 02:50:46;;;;;;;10.95;3.70;;;;;;;9.19;100.00;97457.94;4965553;28;20033;-60
2024/03/01 02:53:11;;;;;;;8.32;2.60;;;;;;;9.18;100.00;97460.69;4980338;28;20148;-61
2024/03/01 02:55:36;;;;;;;10.25;2.20;;;;;;;9.25;100.00;97453.88;4963530;28;20074;-61
2024/03/01 02:58:02;;;;;;;8.23;2.30;;;;;;;9.28;100.00;97450.16;4985557;28;20041;-61
2024/03/01 03:00:30;;;;;;;9.15;2.15;;;;;;;9.31;100.00;97449.81;4981086;28;20481;-61
2024/03/01 03:02:55;;;;;;;7.20;2.30;;;;;;;9.39;100.00;97449.81;4979215;28;20077;-60
2024/03/01 03:05:24;;;;;;;4.85;1.90;;;;;;;9.36;100.00;97435.41;4961337;28;20758;-61
2024/03/01 03:07:50;;;;;;;5.95;2.33;;;;;;;9.33;100.00;97438.31;4974619;28;20037;-61
2024/03/01 03:10:15;;;;;;;6.78;2.05;;;;;;;9.05;100.00;97396.38;4968328;28;20234;-61
2024/03/01 03:12:41;;;;;;;7.53;2.20;;;;;;;9.34;100.00;97445.13;4967657;28;20048;-61
2024/03/01 03:15:07;;;;;;;6.15;1.80;;;;;;;9.36;100.00;97445.78;4978978;28;20088;-61
2024/03/01 03:17:38;;;;;;;6.75;2.03;;;;;;;9.35;100.00;97443.34;4974966;28;20048;-64
2024/03/01 03:20:22;;;;;;;6.18;1.90;;;;;;;9.41;100.00;97445.28;4975596;28;20069;-62
2024/03/01 03:22:48;;;;;;;6.75;1.70;;;;;;;9.35;100.00;97438.97;4988439;28;20108;-61
2024/03/01 03:25:16;;;;;;;6.47;1.63;;;;;;;9.40;100.00;97441.03;4980886;28;20435;-60
2024/03/01 03:27:45;;;;;;;5.93;2.00;;;;;;;9.35;100.00;97435.56;4964946;28;20737;-61
2024/03/01 03:30:11;;;;;;;6.55;2.13;;;;;;;9.21;100.00;97403.31;4999340;28;20569;-60
2024/03/01 03:32:36;;;;;;;4.72;1.42;;;;;;;9.40;100.00;97417.69;4984554;28;20049;-63
2024/03/01 03:35:05;;;;;;;3.85;1.35;;;;;;;9.38;100.00;97430.03;4987563;28;20615;-61
2024/03/01 03:37:33;;;;;;;6.55;1.73;;;;;;;9.37;100.00;97425.84;4967617;28;20041;-59
2024/03/01 03:39:58;;;;;;;5.15;1.67;;;;;;;9.38;100.00;97435.22;4990319;28;20037;-61
2024/03/01 03:42:26;;;;;;;8.95;1.80;;;;;;;9.38;100.00;97430.03;4964795;28;20706;-62
2024/03/01 03:44:52;;;;;;;5.85;1.63;;;;;;;9.37;100.00;97431.81;4965522;28;20516;-59
2024/03/01 03:47:17;;;;;;;7.72;1.60;;;;;;;9.29;100.00;97418.88;4964350;28;20040;-60
2024/03/01 03:49:46;;;;;;;6.13;1.50;;;;;;;9.30;100.00;97428.28;4981721;28;20153;-61
2024/03/01 03:52:12;;;;;;;9.70;1.98;;;;;;;9.30;100.00;97425.69;4966444;28;20449;-62
2024/03/01 03:54:38;;;;;;;7.60;2.08;;;;;;;9.28;100.00;97429.41;4995802;28;20140;-60
2024/03/01 03:57:03;;;;;;;8.20;2.45;;;;;;;9.12;100.00;97419.88;4962307;28;20038;-60
2024/03/01 03:59:29;;;;;;;8.68;2.65;;;;;;;9.07;100.00;97424.75;4994392;28;20049;-60
2024/03/01 04:01:54;;;;;;;8.52;2.50;;;;;;;8.99;100.00;97422.97;4985166;28;20045;-59
2024/03/01 04:04:19;;;;;;;9.93;3.00;;;;;;;8.96;100.00;97428.47;4984490;28;20489;-61
2024/03/01 04:06:45;;;;;;;9.52;2.60;;;;;;;8.95;100.00;97416.50;4982989;28;20109;-61
2024/03/01 04:09:10;;;;;;;7.82;1.75;;;;;;;9.04;100.00;97413.72;4990917;28;20042;-58
2024/03/01 04:11:36;;;;;;;8.10;1.42;;;;;;;9.07;100.00;97417.75;4988012;28;20046;-59
2024/03/01 04:14:02;;;;;;;9.38;1.90;;;;;;;9.09;100.00;97415.84;4985137;28;20469;-60
2024/03/01 04:16:29;;;;;;;7.55;1.60;;;;;;;9.13;100.00;97417.13;4960420;28;20037;-60
2024/03/01 04:18:56;;;;;;;4.13;1.40;;;;;;;9.15;100.00;97419.56;4983346;28;20042;-60
2024/03/01 04:21:25;;;;;;;7.72;1.40;;;;;;;9.16;100.00;97413.38;4982580;28;20061;-59
2024/03/01 04:23:54;;;;;;;6.13;1.70;;;;;;;8.89;100.00;97379.09;4993577;28;20057;-60
2024/03/01 04:26:20;;;;;;;7.50;1.50;;;;;;;9.11;100.00;97413.88;4975506;28;20030;-60
2024/03/01 04:28:48;;;;;;;6.13;1.63;;;;;;;9.17;100.00;97415.81;4981343;28;20789;-60
2024/03/01 04:31:14;;;;;;;10.70;2.03;;;;;;;9.12;100.00;97417.28;4980391;28;20041;-61
2024/03/01 04:33:47;;;;;;;6.15;1.83;;;;;;;9.09;100.00;97415.00;4975553;28;20049;-63
2024/03/01 04:36:12;;;;;;;6.50;1.50;;;;;;;9.07;100.00;97420.34;4959930;28;20046;-62
2024/03/01 04:38:40;;;;;;;7.43;2.15;;;;;;;9.08;100.00;97416.81;4986414;28;20042;-63
2024/03/01 04:41:08;;;;;;;6.55;1.48;;;;;;;9.10;100.00;97421.81;4954012;28;20077;-60
2024/03/01 04:43:33;;;;;;;7.32;1.75;;;;;;;9.01;100.00;97416.63;4953088;28;20520;-61
2024/03/01 04:46:02;;;;;;;8.75;2.55;;;;;;;9.00;100.00;97411.63;4970863;28;20043;-60
2024/03/01 04:48:27;;;;;;;6.97;1.83;;;;;;;8.77;100.00;97385.56;4941098;28;20497;-63
2024/03/01 04:50:55;;;;;;;5.00;1.42;;;;;;;8.83;100.00;97405.63;4959627;28;20046;-63
2024/03/01 04:53:22;;;;;;;7.10;1.80;;;;;;;8.89;100.00;97417.97;4943493;28;20816;-59
2024/03/01 04:55:48;;;;;;;5.85;1.80;;;;;;;8.85;100.00;97420.06;4958830;28;20042;-63
2024/03/01 04:58:13;;;;;;;8.15;1.95;;;;;;;8.83;100.00;97418.59;4953574;28;20030;-60
2024/03/01 05:00:39;;;;;;;7.60;2.50;;;;;;;8.88;100.00;97421.50;4948359;28;20045;-59
2024/03/01 05:03:06;;;;;;;4.97;1.50;;;;;;;8.85;100.00;97425.25;4961026;28;20102;-62
2024/03/01 05:05:32;;;;;;;6.65;1.50;;;;;;;8.83;100.00;97428.97;4947340;28;20475;-59
2024/03/01 05:07:58;;;;;;;5.75;1.60;;;;;;;8.55;100.00;97387.03;4938615;28;20038;-60
2024/03/01 05:10:23;;;;;;;6.15;1.95;;;;;;;8.77;100.00;97427.84;4960565;28;20046;-62
2024/03/01 05:12:49;;;;;;;7.78;1.50;;;;;;;8.88;100.00;97429.28;4961966;28;20665;-63
2024/03/01 05:15:15;;;;;;;5.93;1.55;;;;;;;8.85;100.00;97424.44;4964614;28;20483;-59
2024/03/01 05:17:42;;;;;;;6.13;1.45;;;;;;;8.80;100.00;97413.75;4945187;28;20038;-60
2024/03/01 05:20:11;;;;;;;6.60;1.60;;;;;;;8.98;100.00;97431.72;4960430;28;20050;-59
2024/03/01 05:22:41;;;;;;;7.07;1.50;;;;;;;8.89;100.00;97428.34;4955371;28;20483;-60
2024/03/01 05:25:17;;;;;;;5.65;1.98;;;;;;;8.88;100.00;97437.06;4955568;28;20039;-61
2024/03/01 05:27:50;;;;;;;9.43;1.95;;;;;;;8.72;100.00;97434.47;4963594;28;20030;-59
2024/03/01 05:30:18;;;;;;;8.65;2.45;;;;;;;8.74;100.00;97432.53;4958422;28;20147;-60
2024/03/01 05:32:44;;;;;;;7.32;2.10;;;;;;;8.44;100.00;97382.97;4963693;28;20046;-60
2024/03/01 05:35:11;;;;;;;8.15;1.60;;;;;;;8.52;100.00;97397.72;4961945;28;20130;-59
2024/03/01 05:37:37;;;;;;;5.03;1.40;;;;;;;8.56;100.00;97393.81;4976654;28;20065;-60
2024/03/01 05:40:04;;;;;;;6.43;1.27;;;;;;;8.73;100.00;97436.13;4946477;28;20133;-60
2024/03/01 05:42:31;;;;;;;7.30;1.80;;;;;;;8.76;100.00;97428.81;4962939;28;20069;-60
2024/03/01 05:45:00;;;;;;;6.50;1.20;;;;;;;8.78;100.00;97428.63;4964676;28;20049;-59
2024/03/01 05:47:27;;;;;;;4.97;1.55;;;;;;;8.76;100.00;97428.81;4957316;28;20030;-60
2024/03/01 05:49:55;;;;;;;6.30;1.58;;;;;;;8.78;100.00;97426.03;4957543;28;20543;-59
2024/03/01 05:52:20;;;;;;;6.07;1.20;;;;;;;8.72;100.00;97424.13;4958435;28;20113;-59
2024/03/01 05:54:48;;;;;;;6.22;1.98;;;;;;;8.66;100.00;97416.00;4943204;28;20080;-58
2024/03/01 05:57:18;;;;;;;3.95;1.13;;;;;;;8.68;100.00;97426.22;4942759;28;20034;-59
2024/03/01 05:59:44;;;;;;;4.95;1.30;;;;;;;8.61;100.00;97413.09;4948720;28;20070;-61
2024/03/01 06:02:11;;;;;;;3.25;1.00;;;;;;;8.63;100.00;97416.34;4945188;28;20041;-59
2024/03/01 06:04:37;;;;;;;5.63;1.20;;;;;;;8.60;100.00;97421.84;4940584;28;20045;-59
2024/03/01 06:07:02;;;;;;;5.28;1.33;;;;;;;8.66;100.00;97428.97;4943394;28;20038;-60
2024/03/01 06:09:28;;;;;;;5.25;1.30;;;;;;;8.65;100.00;97424.78;4955929;28;20046;-59
2024/03/01 06:11:55;;;;;;;7.65;2.05;;;;;;;8.63;100.00;97425.88;4959529;28;20042;-58
2024/03/01 06:14:23;;;;;;;3.22;0.90;;;;;;;8.60;100.00;97434.81;4956497;28;20046;-60
2024/03/01 06:16:51;;;;;;;3.45;1.27;;;;;;;8.37;100.00;97390.53;4951789;28;20060;-59
2024/03/01 06:19:17;;;;;;;5.72;1.20;;;;;;;8.60;100.00;97428.81;4963730;28;20053;-59
2024/03/01 06:21:45;;;;;;;4.43;1.17;;;;;;;8.67;100.00;97440.16;4945563;28;20038;-61
2024/03/01 06:24:11;;;;;;;3.58;1.00;;;;;;;8.58;100.00;97428.13;4972860;28;20129;-60
2024/03/01 06:26:38;;;;;;;6.82;1.40;;;;;;;8.62;100.00;97443.22;4935984;28;20035;-60
2024/03/01 06:29:03;;;;;;;7.22;1.60;;;;;;;8.20;100.00;97387.13;4963356;28;20126;-61
2024/03/01 06:31:29;;;;;;;4.55;1.30;;;;;;;8.48;100.00;97438.66;4958287;28;20037;-59
2024/03/01 06:33:54;;;;;;;4.50;1.35;;;;;;;8.41;100.00;97441.03;4956469;28;20066;-59
2024/03/01 06:36:20;;;;;;;4.80;1.30;;;;;;;8.46;100.00;97433.63;4975469;28;20026;-61
2024/03/01 06:38:46;;;;;;;5.70;1.35;;;;;;;8.44;100.00;97437.38;4950620;28;20395;-60
2024/03/01 06:41:11;;;;;;;3.20;1.08;;;;;;;8.42;100.00;97432.34;4957519;28;20053;-58
2024/03/01 06:43:39;;;;;;;3.78;1.13;;;;;;;8.51;100.00;97440.94;4989970;28;20038;-59
2024/03/01 06:46:08;;;;;;;3.45;0.90;;;;;;;8.50;100.00;97443.69;4980792;28;20124;-59
2024/03/01 06:48:34;;;;;;;2.55;1.02;;;;;;;8.52;100.00;97444.34;4978464;28;20038;-61
2024/03/01 06:50:59;;;;;;;4.47;1.08;;;;;;;8.53;100.00;97444.19;4979393;28;20088;-59
2024/03/01 06:53:26;;;;;;;4.40;1.40;;;;;;;8.42;100.00;97444.50;4967044;28;20049;-60
2024/03/01 06:55:52;;;;;;;7.07;1.88;;;;;;;8.40;100.00;97446.41;4959526;28;20046;-59
2024/03/01 06:58:17;;;;;;;5.13;1.10;;;;;;;8.39;100.00;97445.56;4959433;28;20030;-60
2024/03/01 07:00:47;;;;;;;5.47;1.30;;;;;;;8.43;100.00;97439.16;4975109;28;20045;-61
2024/03/01 07:03:16;;;;;;;4.93;1.38;;;;;;;8.43;100.00;97446.09;4957899;28;20073;-62
2024/03/01 07:05:42;;;;;;;5.18;1.20;;;;;;;8.40;100.00;97446.41;4962387;28;20371;-60
2024/03/01 07:08:08;;;;;;;2.83;1.00;;;;;;;8.44;100.00;97447.72;4977171;28;20776;-61
2024/03/01 07:10:35;;;;;;;3.78;1.10;;;;;;;8.45;100.00;97441.56;4958855;28;20033;-60
2024/03/01 07:13:00;;;;;;;4.85;1.30;;;;;;;8.45;100.00;97451.94;4974449;28;20041;-61
2024/03/01 07:15:27;;;;;;;4.40;1.17;;;;;;;8.41;100.00;97448.00;4983155;28;20732;-60
2024/03/01 07:17:53;;;;;;;5.05;1.05;;;;;;;8.46;100.00;97446.59;4961071;28;20561;-60
2024/03/01 07:20:24;;;;;;;4.75;1.10;;;;;;;8.50;100.00;97461.81;4961648;28;20039;-61
2024/03/01 07:22:50;;;;;;;4.75;1.00;;;;;;;8.51;100.00;97451.31;4958359;28;20133;-60
2024/03/01 07:25:16;;;;;;;5.95;1.20;;;;;;;8.56;100.00;97453.41;4978782;28;20077;-60
2024/03/01 07:27:41;;;;;;;3.72;1.00;;;;;;;8.54;100.00;97463.13;4974721;28;20069;-59
2024/03/01 07:30:08;;;;;;;3.53;1.00;;;;;;;8.54;100.00;97458.78;4964666;28;20038;-59
2024/03/01 07:32:35;;;;;;;5.00;1.17;;;;;;;8.51;100.00;97451.31;4990856;28;20065;-60
2024/03/01 07:35:03;;;;;;;4.20;1.33;;;;;;;8.56;100.00;97449.06;4980122;28;20046;-60
2024/03/01 07:37:29;;;;;;;4.93;1.20;;;;;;;8.57;100.00;97448.06;4957952;28;20034;-60
2024/03/01 07:39:57;;;;;;;3.33;1.05;;;;;;;8.52;100.00;97460.69;4978958;28;20041;-59
2024/03/01 07:42:25;;;;;;;5.72;1.40;;;;;;;8.53;100.00;97454.53;4964487;28;20050;-61
2024/03/01 07:44:51;;;;;;;5.20;1.38;;;;;;;8.56;100.00;97450.81;4973613;28;20041;-59
2024/03/01 07:47:17;;;;;;;2.75;0.73;;;;;;;8.52;100.00;97442.56;4960644;28;20041;-58
2024/03/01 07:49:43;;;;;;;3.53;1.00;;;;;;;8.47;100.00;97450.00;4988932;28;20791;-61
2024/03/01 07:52:08;;;;;;;4.13;1.48;;;;;;;8.45;100.00;97457.09;4978492;28;20042;-60
2024/03/01 07:54:34;;;;;;;3.83;1.23;;;;;;;8.46;100.00;97448.38;4962855;28;20033;-61
2024/03/01 07:57:01;;;;;;;7.32;1.38;;;;;;;8.51;100.00;97450.50;4958933;28;20550;-60
2024/03/01 07:59:27;;;;;;;4.50;1.27;;;;;;;8.44;100.00;97440.75;4967083;28;20038;-61
2024/03/01 08:01:52;;;;;;;3.83;1.20;;;;;;;8.45;100.00;97434.63;4959613;28;20037;-60
2024/03/01 08:04:20;;;;;;;4.15;1.20;;;;;;;8.50;100.00;97447.09;4964496;28;20037;-60
2024/03/01 08:06:48;;;;;;;4.70;1.45;;;;;;;8.11;100.00;97389.88;4991160;28;20117;-59
2024/03/01 08:09:19;;;;;;;4.28;1.42;;;;;;;8.52;100.00;97444.34;4966071;28;20036;-59
2024/03/01 08:11:48;;;;;;;3.97;1.65;;;;;;;8.51;100.00;97451.31;4960932;28;20077;-61
2024/03/01 08:14:34;;;;;;;7.88;2.13;;;;;;;8.53;100.00;97451.16;4980122;28;20626;-59
2024/03/01 08:17:02;;;;;;;4.75;1.90;;;;;;;8.51;100.00;97451.31;4965101;28;20761;-59
2024/03/01 08:19:45;;;;;;;4.85;1.90;;;;;;;8.44;100.00;97439.97;4985851;28;20061;-59
2024/03/01 08:22:19;;;;;;;4.63;1.38;;;;;;;8.49;100.00;97455.84;4965097;28;20132;-59
2024/03/01 08:24:46;;;;;;;4.35;1.30;;;;;;;8.53;100.00;97451.16;4977540;28;20038;-59
2024/03/01 08:27:14;;;;;;;5.30;2.03;;;;;;;8.20;100.00;97401.84;4975074;28;20045;-60
2024/03/01 08:29:42;;;;;;;5.03;1.80;;;;;;;8.42;100.00;97440.13;4973766;28;20034;-60
2024/03/01 08:32:45;;;;;;;4.80;1.67;;;;;;;8.54;100.00;97445.81;4984089;28;20087;-60
2024/03/01 08:35:15;;;;;;;5.10;2.10;;;;;;;8.54;100.00;97453.59;4970380;28;20559;-61
2024/03/01 08:37:43;;;;;;;5.43;1.80;;;;;;;8.50;100.00;97454.06;4975228;28;20121;-61
2024/03/01 08:40:26;;;;;;;4.00;1.75;;;;;;;8.52;100.00;97449.53;4967995;28;20041;-60
2024/03/01 08:42:52;;;;;;;4.53;1.52;;;;;;;8.16;100.00;97406.53;4992172;28;20044;-60
2024/03/01 08:45:39;;;;;;;5.45;1.55;;;;;;;8.35;100.00;97440.88;4968908;28;20044;-60
2024/03/01 08:48:12;;;;;;;4.63;1.55;;;;;;;8.50;100.00;97446.28;4967111;28;20034;-60
2024/03/01 08:51:01;;;;;;;4.40;1.50;;;;;;;8.51;100.00;97453.91;4979948;28;20045;-59
2024/03/01 08:53:54;;;;;;;4.20;1.80;;;;;;;8.55;100.00;97456.97;4966664;28;20125;-61
2024/03/01 08:56:20;;;;;;;5.35;2.00;;;;;;;8.33;100.00;97412.56;4970714;28;20709;-61
2024/03/01 08:58:51;;;;;;;5.38;2.38;;;;;;;8.59;100.00;97453.09;4964834;28;20052;-60
2024/03/01 09:01:29;;;;;;;6.35;2.65;;;;;;;8.57;100.00;97458.44;4972430;28;20808;-61
2024/03/01 09:03:54;;;;;;;8.57;3.78;;;;;;;8.62;100.00;97453.59;4987594;28;20038;-61
2024/03/01 09:06:22;;;;;;;7.20;2.75;;;;;;;8.62;100.00;97451.00;4971062;28;20038;-60
2024/03/01 09:08:48;;;;;;;5.43;2.22;;;;;;;8.71;100.00;97456.19;4975936;28;20535;-62
2024/03/01 09:11:14;;;;;;;3.50;1.20;;;;;;;8.62;100.00;97456.19;4959897;28;20042;-61
2024/03/01 09:13:40;;;;;;;6.35;2.78;;;;;;;8.65;100.00;97463.63;4973324;28;20033;-60
2024/03/01 09:16:17;;;;;;;6.32;2.40;;;;;;;8.60;100.00;97452.94;4973594;28;20093;-62
2024/03/01 09:18:44;;;;;;;6.07;1.80;;;;;;;8.63;100.00;97460.41;4978222;28;20057;-62
2024/03/01 09:21:31;;;;;;;6.82;2.40;;;;;;;8.72;100.00;97457.81;4966009;28;20045;-61
2024/03/01 09:24:00;;;;;;;7.78;2.70;;;;;;;8.65;100.00;97450.69;4985489;28;20046;-61
2024/03/01 09:26:26;;;;;;;4.40;1.23;;;;;;;8.68;100.00;97454.72;4977485;28;20052;-61
2024/03/01 09:28:58;;;;;;;7.75;2.50;;;;;;;8.65;100.00;97449.84;4959587;28;20050;-58
2024/03/01 09:31:28;;;;;;;5.38;1.40;;;;;;;8.73;100.00;97452.47;4960783;28;20544;-58
2024/03/01 09:33:54;;;;;;;4.32;1.35;;;;;;;8.68;100.00;97452.13;4974079;28;20390;-60
2024/03/01 09:36:25;;;;;;;7.40;1.85;;;;;;;8.67;100.00;97447.94;4976487;28;20043;-63
2024/03/01 09:38:54;;;;;;;5.97;1.65;;;;;;;8.72;100.00;97450.84;4979529;28;20051;-61
2024/03/01 09:41:27;;;;;;;3.95;1.20;;;;;;;8.70;100.00;97459.75;4963683;28;20049;-61
2024/03/01 09:43:53;;;;;;;2.13;0.80;;;;;;;8.39;100.00;97408.50;4980154;28;20070;-61
2024/03/01 09:46:27;;;;;;;3.97;1.00;;;;;;;8.74;100.00;97458.44;4976517;28;20185;-60
2024/03/01 09:49:02;;;;;;;5.15;1.20;;;;;;;8.50;100.00;97436.72;4975153;28;20030;-62
2024/03/01 09:52:01;;;;;;;4.93;1.30;;;;;;;8.71;100.00;97453.59;4992637;28;20042;-61
2024/03/01 09:54:45;;;;;;;4.75;1.20;;;;;;;8.38;100.00;97407.72;4948758;28;20113;-62
2024/03/01 09:57:21;;;;;;;4.40;1.15;;;;;;;8.36;100.00;97414.84;4969386;28;20252;-61
2024/03/01 09:59:47;;;;;;;3.20;1.30;;;;;;;8.58;100.00;97460.06;4978429;28;20046;-61
2024/03/01 10:02:31;;;;;;;3.03;1.00;;;;;;;8.62;100.00;97466.53;4989642;28;20038;-62
2024/03/01 10:05:09;;;;;;;5.82;1.30;;;;;;;8.59;100.00;97459.06;4978446;28;20064;-62
2024/03/01 10:07:57;;;;;;;4.80;1.48;;;;;;;8.61;100.00;97461.50;4973852;28;20048;-61
2024/03/01 10:10:43;;;;;;;3.95;1.30;;;;;;;8.61;100.00;97470.09;4990329;28;20060;-59
2024/03/01 10:13:35;;;;;;;2.72;0.80;;;;;;;8.63;100.00;97472.53;4993681;28;20046;-63
2024/03/01 10:16:03;;;;;;;3.42;0.80;;;;;;;8.37;100.00;97426.78;4982321;28;20034;-61
2024/03/01 10:18:40;;;;;;;3.10;0.80;;;;;;;8.57;100.00;97465.41;4990433;28;20034;-60
2024/03/01 10:21:22;;;;;;;3.08;0.80;;;;;;;8.55;100.00;97460.38;4994478;28;20580;-60
2024/03/01 10:24:29;;;;;;;2.53;0.63;;;;;;;8.59;100.00;97471.22;4988709;28;20105;-61
2024/03/01 10:27:24;;;;;;;2.40;0.98;;;;;;;8.55;100.00;97465.56;4976909;28;20029;-62
2024/03/01 10:30:19;;;;;;;1.02;0.50;;;;;;;8.51;100.00;97474.63;4966858;28;20217;-61
2024/03/01 10:32:44;;;;;;;2.50;0.70;;;;;;;8.21;100.00;97419.84;4976915;28;20067;-60
2024/03/01 10:35:21;;;;;;;2.38;0.80;;;;;;;8.46;100.00;97463.94;4976498;28;20072;-60
2024/03/01 10:38:26;;;;;;;2.60;0.98;;;;;;;8.50;100.00;97465.22;4972976;28;20041;-60
2024/03/01 10:41:07;;;;;;;3.08;0.90;;;;;;;8.21;100.00;97422.41;4992868;28;20872;-59
2024/03/01 10:44:01;;;;;;;2.78;0.80;;;;;;;8.44;100.00;97473.63;4977669;28;20602;-62
2024/03/01 10:46:33;;;;;;;2.85;1.10;;;;;;;8.40;100.00;97464.53;4982216;28;20060;-61
2024/03/01 10:49:05;;;;;;;2.35;0.70;;;;;;;8.39;100.00;97475.84;4966978;28;20196;-59
2024/03/01 10:51:33;;;;;;;2.88;1.00;;;;;;;8.42;100.00;97478.97;4983225;28;20491;-59
2024/03/01 10:53:59;;;;;;;3.05;0.80;;;;;;;8.21;100.00;97434.53;4964071;28;20120;-59
2024/03/01 10:56:25;;;;;;;2.40;0.80;;;;;;;8.39;100.00;97470.69;4977376;28;20038;-62
2024/03/01 10:59:21;;;;;;;2.25;0.75;;;;;;;8.43;100.00;97477.19;4971637;28;20043;-62
2024/03/01 11:01:59;;;;;;;2.70;0.80;;;;;;;8.36;100.00;97469.22;4975513;28;20089;-60
2024/03/01 11:04:46;;;;;;;3.55;0.80;;;;;;;8.41;100.00;97477.31;4995760;28;20038;-61
2024/03/01 11:07:39;;;;;;;1.92;0.63;;;;;;;8.38;100.00;97476.84;4994574;28;20046;-61
2024/03/01 11:10:12;;;;;;;3.33;1.02;;;;;;;8.37;100.00;97470.03;4980062;28;20513;-62
2024/03/01 11:12:50;;;;;;;1.88;0.70;;;;;;;8.28;100.00;97480.34;4966026;28;20474;-60
2024/03/01 11:15:19;;;;;;;2.15;0.70;;;;;;;8.23;100.00;97472.28;4981099;28;20145;-60
2024/03/01 11:17:49;;;;;;;3.40;0.70;;;;;;;8.26;100.00;97477.13;4976435;28;20056;-62
2024/03/01 11:20:46;;;;;;;2.63;0.70;;;;;;;8.21;100.00;97474.22;4979528;28;20050;-60
2024/03/01 11:23:14;;;;;;;1.08;0.50;;;;;;;8.24;100.00;97481.66;4963778;28;20404;-60
2024/03/01 11:26:15;;;;;;;2.72;0.90;;;;;;;8.24;100.00;97480.84;4999559;28;20038;-60
2024/03/01 11:28:46;;;;;;;2.75;0.90;;;;;;;8.21;100.00;97469.03;4947769;28;20049;-59
2024/03/01 11:31:17;;;;;;;2.88;0.90;;;;;;;8.24;100.00;97476.47;4981163;28;20058;-59
2024/03/01 11:33:43;;;;;;;2.58;0.80;;;;;;;8.21;100.00;97479.38;4978109;28;20109;-60
2024/03/01 11:36:34;;;;;;;2.28;0.68;;;;;;;8.31;100.00;97479.25;4960506;28;20038;-61
2024/03/01 11:39:33;;;;;;;1.45;0.52;;;;;;;8.21;100.00;97466.44;4982750;28;20125;-60
2024/03/01 11:42:12;;;;;;;2.50;0.60;;;;;;;8.26;100.00;97473.72;4966108;28;20482;-63
2024/03/01 11:44:46;;;;;;;3.90;0.80;;;;;;;8.24;100.00;97476.47;4958792;28;20058;-61